sensor_id;sensor_type;location;lat;lon;timestamp;temperature;humidity
67769;DHT22;54569;52.018;5.584;2023-01-01T00:01:11;15.90;69.60
67769;DHT22;54569;52.018;5.584;2023-01-01T00:03:37;15.90;68.10
67769;DHT22;54569;52.018;5.584;2023-01-01T00:06:12;15.90;69.60
67769;DHT22;54569;52.018;5.584;2023-01-01T00:08:39;15.90;68.10
67769;DHT22;54569;52.018;5.584;2023-01-01T00:11:07;16.00;69.80
67769;DHT22;54569;52.018;5.584;2023-01-01T00:13:34;15.90;69.80
67769;DHT22;54569;52.018;5.584;2023-01-01T00:16:09;16.00;69.60
67769;DHT22;54569;52.018;5.584;2023-01-01T00:18:35;15.90;68.80
67769;DHT22;54569;52.018;5.584;2023-01-01T00:21:03;15.90;70.00
67769;DHT22;54569;52.018;5.584;2023-01-01T00:23:29;15.90;70.70
67769;DHT22;54569;52.018;5.584;2023-01-01T00:25:56;15.90;70.10
67769;DHT22;54569;52.018;5.584;2023-01-01T00:28:21;15.80;70.00
67769;DHT22;54569;52.018;5.584;2023-01-01T00:30:47;15.90;70.00
67769;DHT22;54569;52.018;5.584;2023-01-01T00:33:13;15.90;69.80
67769;DHT22;54569;52.018;5.584;2023-01-01T00:35:38;15.90;69.90
67769;DHT22;54569;52.018;5.584;2023-01-01T00:38:04;15.90;69.90
67769;DHT22;54569;52.018;5.584;2023-01-01T00:40:29;15.90;70.00
67769;DHT22;54569;52.018;5.584;2023-01-01T00:42:55;15.80;69.80
67769;DHT22;54569;52.018;5.584;2023-01-01T00:45:21;15.80;69.70
67769;DHT22;54569;52.018;5.584;2023-01-01T00:47:47;15.80;69.60
67769;DHT22;54569;52.018;5.584;2023-01-01T00:50:13;15.80;69.00
67769;DHT22;54569;52.018;5.584;2023-01-01T00:52:39;15.80;69.70
67769;DHT22;54569;52.018;5.584;2023-01-01T00:55:05;15.90;69.60
67769;DHT22;54569;52.018;5.584;2023-01-01T00:57:31;15.80;69.50
67769;DHT22;54569;52.018;5.584;2023-01-01T00:59:56;15.80;69.60
67769;DHT22;54569;52.018;5.584;2023-01-01T01:02:22;15.80;69.40
67769;DHT22;54569;52.018;5.584;2023-01-01T01:04:48;15.80;69.80
67769;DHT22;54569;52.018;5.584;2023-01-01T01:07:13;15.80;69.90
67769;DHT22;54569;52.018;5.584;2023-01-01T01:09:39;15.80;69.80
67769;DHT22;54569;52.018;5.584;2023-01-01T01:12:05;15.70;70.40
67769;DHT22;54569;52.018;5.584;2023-01-01T01:14:30;15.70;69.60
67769;DHT22;54569;52.018;5.584;2023-01-01T01:16:56;15.70;70.10
67769;DHT22;54569;52.018;5.584;2023-01-01T01:19:22;15.70;70.20
67769;DHT22;54569;52.018;5.584;2023-01-01T01:21:50;15.70;70.00
67769;DHT22;54569;52.018;5.584;2023-01-01T01:24:16;15.70;69.90
67769;DHT22;54569;52.018;5.584;2023-01-01T01:26:42;15.70;69.90
67769;DHT22;54569;52.018;5.584;2023-01-01T01:29:08;15.60;69.70
67769;DHT22;54569;52.018;5.584;2023-01-01T01:31:34;15.60;69.60
67769;DHT22;54569;52.018;5.584;2023-01-01T01:34:00;15.60;69.80
67769;DHT22;54569;52.018;5.584;2023-01-01T01:36:26;15.60;70.10
67769;DHT22;54569;52.018;5.584;2023-01-01T01:38:52;15.50;70.00
67769;DHT22;54569;52.018;5.584;2023-01-01T01:41:22;15.50;70.20
67769;DHT22;54569;52.018;5.584;2023-01-01T01:43:53;15.50;69.60
67769;DHT22;54569;52.018;5.584;2023-01-01T01:46:40;15.40;69.90
67769;DHT22;54569;52.018;5.584;2023-01-01T01:49:17;15.40;68.10
67769;DHT22;54569;52.018;5.584;2023-01-01T01:51:44;15.30;70.10
67769;DHT22;54569;52.018;5.584;2023-01-01T01:54:14;15.30;70.50
67769;DHT22;54569;52.018;5.584;2023-01-01T01:56:46;15.30;70.10
67769;DHT22;54569;52.018;5.584;2023-01-01T01:59:14;15.20;70.10
67769;DHT22;54569;52.018;5.584;2023-01-01T02:01:40;15.30;70.30
67769;DHT22;54569;52.018;5.584;2023-01-01T02:04:06;15.20;70.50
67769;DHT22;54569;52.018;5.584;2023-01-01T02:06:32;15.20;70.30
67769;DHT22;54569;52.018;5.584;2023-01-01T02:09:02;15.20;70.00
67769;DHT22;54569;52.018;5.584;2023-01-01T02:11:28;15.20;69.90
67769;DHT22;54569;52.018;5.584;2023-01-01T02:13:55;15.20;70.00
67769;DHT22;54569;52.018;5.584;2023-01-01T02:19:07;15.30;69.50
67769;DHT22;54569;52.018;5.584;2023-01-01T02:30:06;15.30;69.70
67769;DHT22;54569;52.018;5.584;2023-01-01T02:32:36;15.30;66.80
67769;DHT22;54569;52.018;5.584;2023-01-01T02:35:09;15.30;70.10
67769;DHT22;54569;52.018;5.584;2023-01-01T02:37:59;15.30;69.10
67769;DHT22;54569;52.018;5.584;2023-01-01T02:40:26;15.30;69.50
67769;DHT22;54569;52.018;5.584;2023-01-01T02:42:53;15.30;69.30
67769;DHT22;54569;52.018;5.584;2023-01-01T02:45:20;15.30;69.10
67769;DHT22;54569;52.018;5.584;2023-01-01T02:47:46;15.30;69.10
67769;DHT22;54569;52.018;5.584;2023-01-01T02:50:21;15.30;69.10
67769;DHT22;54569;52.018;5.584;2023-01-01T02:53:13;15.30;67.70
67769;DHT22;54569;52.018;5.584;2023-01-01T02:55:46;15.30;66.20
67769;DHT22;54569;52.018;5.584;2023-01-01T03:06:57;15.30;68.60
67769;DHT22;54569;52.018;5.584;2023-01-01T03:09:42;15.30;62.90
67769;DHT22;54569;52.018;5.584;2023-01-01T03:12:34;15.30;66.60
67769;DHT22;54569;52.018;5.584;2023-01-01T03:20:56;15.20;65.90
67769;DHT22;54569;52.018;5.584;2023-01-01T03:23:39;15.30;68.40
67769;DHT22;54569;52.018;5.584;2023-01-01T03:26:09;15.20;67.60
67769;DHT22;54569;52.018;5.584;2023-01-01T03:28:50;15.20;69.10
67769;DHT22;54569;52.018;5.584;2023-01-01T03:31:20;15.20;66.70
67769;DHT22;54569;52.018;5.584;2023-01-01T03:33:55;15.20;68.10
67769;DHT22;54569;52.018;5.584;2023-01-01T03:36:23;15.20;67.80
67769;DHT22;54569;52.018;5.584;2023-01-01T03:39:04;15.20;63.40
67769;DHT22;54569;52.018;5.584;2023-01-01T03:41:44;15.20;66.90
67769;DHT22;54569;52.018;5.584;2023-01-01T03:46:48;15.20;68.50
67769;DHT22;54569;52.018;5.584;2023-01-01T03:49:15;15.20;68.80
67769;DHT22;54569;52.018;5.584;2023-01-01T03:52:06;15.10;68.40
67769;DHT22;54569;52.018;5.584;2023-01-01T03:54:45;15.10;65.30
67769;DHT22;54569;52.018;5.584;2023-01-01T04:00:14;15.10;66.70
67769;DHT22;54569;52.018;5.584;2023-01-01T04:03:02;15.20;68.50
67769;DHT22;54569;52.018;5.584;2023-01-01T04:05:32;15.10;66.80
67769;DHT22;54569;52.018;5.584;2023-01-01T04:08:01;15.10;68.60
67769;DHT22;54569;52.018;5.584;2023-01-01T04:10:29;15.10;68.50
67769;DHT22;54569;52.018;5.584;2023-01-01T04:12:56;15.10;68.40
67769;DHT22;54569;52.018;5.584;2023-01-01T04:15:26;15.20;68.50
67769;DHT22;54569;52.018;5.584;2023-01-01T04:17:52;15.20;68.40
67769;DHT22;54569;52.018;5.584;2023-01-01T04:20:19;15.20;68.50
67769;DHT22;54569;52.018;5.584;2023-01-01T04:22:45;15.20;68.70
67769;DHT22;54569;52.018;5.584;2023-01-01T04:25:11;15.20;68.20
67769;DHT22;54569;52.018;5.584;2023-01-01T04:27:38;15.20;68.40
67769;DHT22;54569;52.018;5.584;2023-01-01T04:30:05;15.20;68.50
67769;DHT22;54569;52.018;5.584;2023-01-01T04:32:32;15.20;68.80
67769;DHT22;54569;52.018;5.584;2023-01-01T04:34:57;15.10;68.90
67769;DHT22;54569;52.018;5.584;2023-01-01T04:37:23;15.00;69.70
67769;DHT22;54569;52.018;5.584;2023-01-01T04:39:49;14.90;70.30
67769;DHT22;54569;52.018;5.584;2023-01-01T04:42:14;14.80;71.10
67769;DHT22;54569;52.018;5.584;2023-01-01T04:44:40;14.70;71.80
67769;DHT22;54569;52.018;5.584;2023-01-01T04:47:06;14.50;72.40
67769;DHT22;54569;52.018;5.584;2023-01-01T04:49:31;14.40;72.80
67769;DHT22;54569;52.018;5.584;2023-01-01T04:51:57;14.30;73.80
67769;DHT22;54569;52.018;5.584;2023-01-01T04:54:23;14.20;73.60
67769;DHT22;54569;52.018;5.584;2023-01-01T04:56:48;14.20;73.80
67769;DHT22;54569;52.018;5.584;2023-01-01T04:59:14;14.10;73.80
67769;DHT22;54569;52.018;5.584;2023-01-01T05:01:39;14.10;73.80
67769;DHT22;54569;52.018;5.584;2023-01-01T05:04:05;14.10;73.70
67769;DHT22;54569;52.018;5.584;2023-01-01T05:06:31;14.10;73.60
67769;DHT22;54569;52.018;5.584;2023-01-01T05:08:57;14.10;73.70
67769;DHT22;54569;52.018;5.584;2023-01-01T05:11:27;14.10;73.50
67769;DHT22;54569;52.018;5.584;2023-01-01T05:13:55;14.20;73.40
67769;DHT22;54569;52.018;5.584;2023-01-01T05:16:23;14.20;73.50
67769;DHT22;54569;52.018;5.584;2023-01-01T05:18:50;14.10;73.40
67769;DHT22;54569;52.018;5.584;2023-01-01T05:21:18;14.20;73.40
67769;DHT22;54569;52.018;5.584;2023-01-01T05:23:44;14.20;73.10
67769;DHT22;54569;52.018;5.584;2023-01-01T05:26:12;14.20;72.90
67769;DHT22;54569;52.018;5.584;2023-01-01T05:28:39;14.20;72.70
67769;DHT22;54569;52.018;5.584;2023-01-01T05:31:07;14.20;72.60
67769;DHT22;54569;52.018;5.584;2023-01-01T05:33:33;14.30;72.30
67769;DHT22;54569;52.018;5.584;2023-01-01T05:35:59;14.30;72.10
67769;DHT22;54569;52.018;5.584;2023-01-01T05:38:24;14.30;71.90
67769;DHT22;54569;52.018;5.584;2023-01-01T05:40:50;14.30;71.80
67769;DHT22;54569;52.018;5.584;2023-01-01T05:43:16;14.30;70.40
67769;DHT22;54569;52.018;5.584;2023-01-01T05:45:42;14.30;70.80
67769;DHT22;54569;52.018;5.584;2023-01-01T05:48:09;14.30;70.10
67769;DHT22;54569;52.018;5.584;2023-01-01T05:50:35;14.30;70.20
67769;DHT22;54569;52.018;5.584;2023-01-01T05:53:00;14.30;69.80
67769;DHT22;54569;52.018;5.584;2023-01-01T05:55:27;14.20;69.70
67769;DHT22;54569;52.018;5.584;2023-01-01T05:57:52;14.20;69.90
67769;DHT22;54569;52.018;5.584;2023-01-01T06:00:18;14.20;69.80
67769;DHT22;54569;52.018;5.584;2023-01-01T06:02:44;14.20;69.50
67769;DHT22;54569;52.018;5.584;2023-01-01T06:05:10;14.10;69.00
67769;DHT22;54569;52.018;5.584;2023-01-01T06:07:35;14.10;68.90
67769;DHT22;54569;52.018;5.584;2023-01-01T06:10:02;14.10;68.90
67769;DHT22;54569;52.018;5.584;2023-01-01T06:12:28;14.10;68.90
67769;DHT22;54569;52.018;5.584;2023-01-01T06:14:53;14.10;68.00
67769;DHT22;54569;52.018;5.584;2023-01-01T06:17:19;14.00;67.80
67769;DHT22;54569;52.018;5.584;2023-01-01T06:19:45;14.00;68.10
67769;DHT22;54569;52.018;5.584;2023-01-01T06:22:10;14.00;67.60
67769;DHT22;54569;52.018;5.584;2023-01-01T06:24:36;14.00;67.70
67769;DHT22;54569;52.018;5.584;2023-01-01T06:27:01;14.00;67.40
67769;DHT22;54569;52.018;5.584;2023-01-01T06:29:27;13.90;67.30
67769;DHT22;54569;52.018;5.584;2023-01-01T06:31:53;13.90;67.80
67769;DHT22;54569;52.018;5.584;2023-01-01T06:34:18;13.90;67.70
67769;DHT22;54569;52.018;5.584;2023-01-01T06:36:44;13.90;67.70
67769;DHT22;54569;52.018;5.584;2023-01-01T06:39:10;13.90;68.00
67769;DHT22;54569;52.018;5.584;2023-01-01T06:41:35;13.80;68.30
67769;DHT22;54569;52.018;5.584;2023-01-01T06:44:01;13.80;68.30
67769;DHT22;54569;52.018;5.584;2023-01-01T06:46:31;13.80;68.50
67769;DHT22;54569;52.018;5.584;2023-01-01T06:49:03;13.70;68.50
67769;DHT22;54569;52.018;5.584;2023-01-01T06:51:38;13.70;68.30
67769;DHT22;54569;52.018;5.584;2023-01-01T06:54:05;13.70;68.90
67769;DHT22;54569;52.018;5.584;2023-01-01T06:56:31;13.60;69.20
67769;DHT22;54569;52.018;5.584;2023-01-01T06:58:58;13.60;69.30
67769;DHT22;54569;52.018;5.584;2023-01-01T07:01:26;13.60;69.50
67769;DHT22;54569;52.018;5.584;2023-01-01T07:03:53;13.60;69.50
67769;DHT22;54569;52.018;5.584;2023-01-01T07:06:20;13.50;69.60
67769;DHT22;54569;52.018;5.584;2023-01-01T07:08:46;13.40;69.90
67769;DHT22;54569;52.018;5.584;2023-01-01T07:11:12;13.40;69.80
67769;DHT22;54569;52.018;5.584;2023-01-01T07:13:37;13.40;70.00
67769;DHT22;54569;52.018;5.584;2023-01-01T07:16:03;13.30;70.00
67769;DHT22;54569;52.018;5.584;2023-01-01T07:18:29;13.30;70.10
67769;DHT22;54569;52.018;5.584;2023-01-01T07:21:00;13.20;70.40
67769;DHT22;54569;52.018;5.584;2023-01-01T07:23:28;13.10;71.20
67769;DHT22;54569;52.018;5.584;2023-01-01T07:25:54;13.00;70.70
67769;DHT22;54569;52.018;5.584;2023-01-01T07:28:21;12.90;70.70
67769;DHT22;54569;52.018;5.584;2023-01-01T07:30:47;12.80;71.00
67769;DHT22;54569;52.018;5.584;2023-01-01T07:33:16;12.80;71.00
67769;DHT22;54569;52.018;5.584;2023-01-01T07:35:42;12.70;71.30
67769;DHT22;54569;52.018;5.584;2023-01-01T07:38:11;12.70;71.40
67769;DHT22;54569;52.018;5.584;2023-01-01T07:40:37;12.60;71.50
67769;DHT22;54569;52.018;5.584;2023-01-01T07:43:02;12.60;71.30
67769;DHT22;54569;52.018;5.584;2023-01-01T07:45:28;12.50;71.40
67769;DHT22;54569;52.018;5.584;2023-01-01T07:47:55;12.50;71.10
67769;DHT22;54569;52.018;5.584;2023-01-01T07:50:23;12.50;71.00
67769;DHT22;54569;52.018;5.584;2023-01-01T07:52:49;12.50;71.10
67769;DHT22;54569;52.018;5.584;2023-01-01T07:55:17;12.50;71.30
67769;DHT22;54569;52.018;5.584;2023-01-01T07:57:43;12.40;71.10
67769;DHT22;54569;52.018;5.584;2023-01-01T08:00:12;12.40;71.20
67769;DHT22;54569;52.018;5.584;2023-01-01T08:02:39;12.40;71.20
67769;DHT22;54569;52.018;5.584;2023-01-01T08:05:05;12.40;71.20
67769;DHT22;54569;52.018;5.584;2023-01-01T08:07:31;12.40;71.00
67769;DHT22;54569;52.018;5.584;2023-01-01T08:09:56;12.40;71.20
67769;DHT22;54569;52.018;5.584;2023-01-01T08:12:22;12.40;71.30
67769;DHT22;54569;52.018;5.584;2023-01-01T08:14:48;12.40;71.30
67769;DHT22;54569;52.018;5.584;2023-01-01T08:17:14;12.40;71.30
67769;DHT22;54569;52.018;5.584;2023-01-01T08:19:39;12.40;71.40
67769;DHT22;54569;52.018;5.584;2023-01-01T08:22:05;12.40;71.30
67769;DHT22;54569;52.018;5.584;2023-01-01T08:24:31;12.40;71.60
67769;DHT22;54569;52.018;5.584;2023-01-01T08:26:56;12.40;71.60
67769;DHT22;54569;52.018;5.584;2023-01-01T08:29:22;12.40;71.60
67769;DHT22;54569;52.018;5.584;2023-01-01T08:31:47;12.40;71.70
67769;DHT22;54569;52.018;5.584;2023-01-01T08:34:13;12.40;71.80
67769;DHT22;54569;52.018;5.584;2023-01-01T08:36:39;12.40;71.80
67769;DHT22;54569;52.018;5.584;2023-01-01T08:39:06;12.40;71.70
67769;DHT22;54569;52.018;5.584;2023-01-01T08:41:32;12.40;71.80
67769;DHT22;54569;52.018;5.584;2023-01-01T08:43:57;12.40;71.80
67769;DHT22;54569;52.018;5.584;2023-01-01T08:46:23;12.40;71.90
67769;DHT22;54569;52.018;5.584;2023-01-01T08:48:49;12.40;71.80
67769;DHT22;54569;52.018;5.584;2023-01-01T08:51:15;12.50;72.00
67769;DHT22;54569;52.018;5.584;2023-01-01T08:53:41;12.40;71.90
67769;DHT22;54569;52.018;5.584;2023-01-01T08:56:08;12.50;72.10
67769;DHT22;54569;52.018;5.584;2023-01-01T08:58:39;12.50;72.00
67769;DHT22;54569;52.018;5.584;2023-01-01T09:01:05;12.50;71.80
67769;DHT22;54569;52.018;5.584;2023-01-01T09:03:32;12.50;71.90
67769;DHT22;54569;52.018;5.584;2023-01-01T09:05:58;12.50;71.90
67769;DHT22;54569;52.018;5.584;2023-01-01T09:08:24;12.50;71.90
67769;DHT22;54569;52.018;5.584;2023-01-01T09:10:50;12.60;71.90
67769;DHT22;54569;52.018;5.584;2023-01-01T09:13:19;12.60;72.00
67769;DHT22;54569;52.018;5.584;2023-01-01T09:15:47;12.60;71.90
67769;DHT22;54569;52.018;5.584;2023-01-01T09:18:13;12.70;71.90
67769;DHT22;54569;52.018;5.584;2023-01-01T09:20:39;12.70;71.90
67769;DHT22;54569;52.018;5.584;2023-01-01T09:23:06;12.70;71.70
67769;DHT22;54569;52.018;5.584;2023-01-01T09:25:32;12.70;71.90
67769;DHT22;54569;52.018;5.584;2023-01-01T09:27:59;12.80;72.00
67769;DHT22;54569;52.018;5.584;2023-01-01T09:30:25;12.80;72.00
67769;DHT22;54569;52.018;5.584;2023-01-01T09:32:51;12.80;72.00
67769;DHT22;54569;52.018;5.584;2023-01-01T09:35:17;13.10;72.50
67769;DHT22;54569;52.018;5.584;2023-01-01T09:37:43;13.60;71.00
67769;DHT22;54569;52.018;5.584;2023-01-01T09:40:31;14.00;69.70
67769;DHT22;54569;52.018;5.584;2023-01-01T09:45:58;13.90;69.30
67769;DHT22;54569;52.018;5.584;2023-01-01T09:48:25;13.70;69.60
67769;DHT22;54569;52.018;5.584;2023-01-01T09:50:53;13.60;70.70
67769;DHT22;54569;52.018;5.584;2023-01-01T09:53:30;13.50;71.00
67769;DHT22;54569;52.018;5.584;2023-01-01T09:55:58;13.50;71.30
67769;DHT22;54569;52.018;5.584;2023-01-01T10:01:01;13.40;71.70
67769;DHT22;54569;52.018;5.584;2023-01-01T10:03:39;13.40;71.90
67769;DHT22;54569;52.018;5.584;2023-01-01T10:09:08;13.30;72.10
67769;DHT22;54569;52.018;5.584;2023-01-01T10:14:42;13.20;73.10
67769;DHT22;54569;52.018;5.584;2023-01-01T10:17:39;13.20;74.00
67769;DHT22;54569;52.018;5.584;2023-01-01T10:23:21;13.10;74.40
67769;DHT22;54569;52.018;5.584;2023-01-01T10:25:48;13.10;74.90
67769;DHT22;54569;52.018;5.584;2023-01-01T10:30:50;13.10;75.10
67769;DHT22;54569;52.018;5.584;2023-01-01T10:33:18;13.10;75.00
67769;DHT22;54569;52.018;5.584;2023-01-01T10:35:49;13.10;75.20
67769;DHT22;54569;52.018;5.584;2023-01-01T10:38:22;13.10;75.40
67769;DHT22;54569;52.018;5.584;2023-01-01T10:40:49;13.00;75.50
67769;DHT22;54569;52.018;5.584;2023-01-01T10:43:18;13.00;75.70
67769;DHT22;54569;52.018;5.584;2023-01-01T10:45:48;13.00;75.80
67769;DHT22;54569;52.018;5.584;2023-01-01T10:48:26;13.00;75.80
67769;DHT22;54569;52.018;5.584;2023-01-01T10:53:27;13.00;76.00
67769;DHT22;54569;52.018;5.584;2023-01-01T11:01:03;13.00;76.50
67769;DHT22;54569;52.018;5.584;2023-01-01T11:03:29;13.00;76.20
67769;DHT22;54569;52.018;5.584;2023-01-01T11:06:20;13.10;76.70
67769;DHT22;54569;52.018;5.584;2023-01-01T11:08:51;13.20;76.80
67769;DHT22;54569;52.018;5.584;2023-01-01T11:11:21;13.20;75.70
67769;DHT22;54569;52.018;5.584;2023-01-01T11:13:49;13.30;75.60
67769;DHT22;54569;52.018;5.584;2023-01-01T11:16:15;13.40;75.60
67769;DHT22;54569;52.018;5.584;2023-01-01T11:18:41;13.50;75.20
67769;DHT22;54569;52.018;5.584;2023-01-01T11:21:07;13.80;74.40
67769;DHT22;54569;52.018;5.584;2023-01-01T11:23:37;13.90;74.30
67769;DHT22;54569;52.018;5.584;2023-01-01T11:28:39;13.70;74.50
67769;DHT22;54569;52.018;5.584;2023-01-01T11:31:16;13.60;75.00
67769;DHT22;54569;52.018;5.584;2023-01-01T11:33:54;13.50;75.60
67769;DHT22;54569;52.018;5.584;2023-01-01T11:36:27;13.50;76.00
67769;DHT22;54569;52.018;5.584;2023-01-01T11:41:42;13.40;76.60
67769;DHT22;54569;52.018;5.584;2023-01-01T11:44:11;13.40;76.20
67769;DHT22;54569;52.018;5.584;2023-01-01T11:46:38;13.40;76.30
67769;DHT22;54569;52.018;5.584;2023-01-01T11:49:13;13.40;76.50
67769;DHT22;54569;52.018;5.584;2023-01-01T11:51:39;13.40;76.80
67769;DHT22;54569;52.018;5.584;2023-01-01T11:54:12;13.40;76.90
67769;DHT22;54569;52.018;5.584;2023-01-01T11:56:45;13.40;77.10
67769;DHT22;54569;52.018;5.584;2023-01-01T11:59:15;13.40;77.30
67769;DHT22;54569;52.018;5.584;2023-01-01T12:01:52;13.30;77.40
67769;DHT22;54569;52.018;5.584;2023-01-01T12:07:28;13.30;78.00
67769;DHT22;54569;52.018;5.584;2023-01-01T12:10:16;13.40;78.00
67769;DHT22;54569;52.018;5.584;2023-01-01T12:13:04;13.50;78.30
67769;DHT22;54569;52.018;5.584;2023-01-01T12:15:51;13.50;78.30
67769;DHT22;54569;52.018;5.584;2023-01-01T12:18:58;13.60;77.90
67769;DHT22;54569;52.018;5.584;2023-01-01T12:21:25;13.60;78.00
67769;DHT22;54569;52.018;5.584;2023-01-01T12:23:53;13.70;77.40
67769;DHT22;54569;52.018;5.584;2023-01-01T12:58:40;14.00;76.80
67769;DHT22;54569;52.018;5.584;2023-01-01T13:01:19;14.00;76.80
67769;DHT22;54569;52.018;5.584;2023-01-01T13:03:54;14.00;76.90
67769;DHT22;54569;52.018;5.584;2023-01-01T13:06:38;14.00;77.50
67769;DHT22;54569;52.018;5.584;2023-01-01T13:09:17;13.90;77.00
67769;DHT22;54569;52.018;5.584;2023-01-01T13:11:47;13.90;77.30
67769;DHT22;54569;52.018;5.584;2023-01-01T13:14:15;13.80;77.30
67769;DHT22;54569;52.018;5.584;2023-01-01T13:16:43;13.80;77.30
67769;DHT22;54569;52.018;5.584;2023-01-01T13:19:26;13.80;78.00
67769;DHT22;54569;52.018;5.584;2023-01-01T13:21:55;13.80;77.50
67769;DHT22;54569;52.018;5.584;2023-01-01T13:24:23;13.70;77.40
67769;DHT22;54569;52.018;5.584;2023-01-01T13:26:49;13.60;77.50
67769;DHT22;54569;52.018;5.584;2023-01-01T13:40:02;13.50;77.90
67769;DHT22;54569;52.018;5.584;2023-01-01T13:42:46;13.50;77.80
67769;DHT22;54569;52.018;5.584;2023-01-01T13:45:48;13.50;77.90
67769;DHT22;54569;52.018;5.584;2023-01-01T13:48:56;13.40;77.90
67769;DHT22;54569;52.018;5.584;2023-01-01T14:00:11;13.40;77.70
67769;DHT22;54569;52.018;5.584;2023-01-01T14:02:46;13.50;77.70
67769;DHT22;54569;52.018;5.584;2023-01-01T14:05:32;13.40;77.70
67769;DHT22;54569;52.018;5.584;2023-01-01T14:08:00;13.50;77.70
67769;DHT22;54569;52.018;5.584;2023-01-01T14:10:36;13.40;77.70
67769;DHT22;54569;52.018;5.584;2023-01-01T14:15:35;13.40;77.80
67769;DHT22;54569;52.018;5.584;2023-01-01T14:18:10;13.40;77.80
67769;DHT22;54569;52.018;5.584;2023-01-01T14:20:42;13.40;77.90
67769;DHT22;54569;52.018;5.584;2023-01-01T14:23:34;13.40;77.90
67769;DHT22;54569;52.018;5.584;2023-01-01T14:26:00;13.40;78.00
67769;DHT22;54569;52.018;5.584;2023-01-01T14:28:31;13.40;78.00
67769;DHT22;54569;52.018;5.584;2023-01-01T14:31:02;13.40;78.10
67769;DHT22;54569;52.018;5.584;2023-01-01T14:33:33;13.40;78.10
67769;DHT22;54569;52.018;5.584;2023-01-01T14:36:04;13.40;78.20
67769;DHT22;54569;52.018;5.584;2023-01-01T14:38:32;13.40;78.30
67769;DHT22;54569;52.018;5.584;2023-01-01T14:41:13;13.30;78.40
67769;DHT22;54569;52.018;5.584;2023-01-01T14:43:42;13.30;78.50
67769;DHT22;54569;52.018;5.584;2023-01-01T14:46:20;13.30;78.60
67769;DHT22;54569;52.018;5.584;2023-01-01T14:49:00;13.30;78.70
67769;DHT22;54569;52.018;5.584;2023-01-01T14:51:28;13.30;78.80
67769;DHT22;54569;52.018;5.584;2023-01-01T14:53:57;13.20;78.90
67769;DHT22;54569;52.018;5.584;2023-01-01T14:56:35;13.20;78.90
67769;DHT22;54569;52.018;5.584;2023-01-01T15:01:36;13.20;79.00
67769;DHT22;54569;52.018;5.584;2023-01-01T15:04:22;13.20;79.10
67769;DHT22;54569;52.018;5.584;2023-01-01T15:06:58;13.20;79.10
67769;DHT22;54569;52.018;5.584;2023-01-01T15:09:25;13.20;79.20
67769;DHT22;54569;52.018;5.584;2023-01-01T15:11:55;13.10;79.60
67769;DHT22;54569;52.018;5.584;2023-01-01T15:14:31;13.10;79.40
67769;DHT22;54569;52.018;5.584;2023-01-01T15:17:08;13.00;79.50
67769;DHT22;54569;52.018;5.584;2023-01-01T15:19:39;13.00;79.50
67769;DHT22;54569;52.018;5.584;2023-01-01T15:22:22;13.00;79.70
67769;DHT22;54569;52.018;5.584;2023-01-01T15:24:50;13.00;79.80
67769;DHT22;54569;52.018;5.584;2023-01-01T15:27:27;12.90;80.00
67769;DHT22;54569;52.018;5.584;2023-01-01T15:29:54;12.90;80.10
67769;DHT22;54569;52.018;5.584;2023-01-01T15:32:27;12.90;80.10
67769;DHT22;54569;52.018;5.584;2023-01-01T15:34:59;12.90;80.30
67769;DHT22;54569;52.018;5.584;2023-01-01T15:39:59;12.80;80.40
67769;DHT22;54569;52.018;5.584;2023-01-01T15:42:35;12.80;80.40
67769;DHT22;54569;52.018;5.584;2023-01-01T15:47:43;12.80;80.30
67769;DHT22;54569;52.018;5.584;2023-01-01T15:50:32;12.80;80.20
67769;DHT22;54569;52.018;5.584;2023-01-01T15:53:01;12.80;80.10
67769;DHT22;54569;52.018;5.584;2023-01-01T15:55:31;12.90;80.00
67769;DHT22;54569;52.018;5.584;2023-01-01T15:57:58;12.90;80.00
67769;DHT22;54569;52.018;5.584;2023-01-01T16:00:27;12.90;79.80
67769;DHT22;54569;52.018;5.584;2023-01-01T16:02:57;12.90;79.80
67769;DHT22;54569;52.018;5.584;2023-01-01T16:05:24;12.90;79.80
67769;DHT22;54569;52.018;5.584;2023-01-01T16:08:02;12.90;79.70
67769;DHT22;54569;52.018;5.584;2023-01-01T16:10:29;12.90;79.70
67769;DHT22;54569;52.018;5.584;2023-01-01T16:12:58;12.90;80.20
67769;DHT22;54569;52.018;5.584;2023-01-01T16:15:24;12.90;79.60
67769;DHT22;54569;52.018;5.584;2023-01-01T16:17:50;12.90;79.60
67769;DHT22;54569;52.018;5.584;2023-01-01T16:20:18;12.90;79.50
67769;DHT22;54569;52.018;5.584;2023-01-01T16:22:44;12.90;80.10
67769;DHT22;54569;52.018;5.584;2023-01-01T16:25:15;12.90;79.50
67769;DHT22;54569;52.018;5.584;2023-01-01T16:27:41;12.90;79.50
67769;DHT22;54569;52.018;5.584;2023-01-01T16:30:08;12.90;79.70
67769;DHT22;54569;52.018;5.584;2023-01-01T16:32:34;12.90;79.50
67769;DHT22;54569;52.018;5.584;2023-01-01T16:35:00;12.90;79.60
67769;DHT22;54569;52.018;5.584;2023-01-01T16:37:26;12.90;79.60
67769;DHT22;54569;52.018;5.584;2023-01-01T16:39:52;12.90;79.80
67769;DHT22;54569;52.018;5.584;2023-01-01T16:42:17;12.80;79.80
67769;DHT22;54569;52.018;5.584;2023-01-01T16:44:43;12.80;79.90
67769;DHT22;54569;52.018;5.584;2023-01-01T16:47:09;12.80;80.00
67769;DHT22;54569;52.018;5.584;2023-01-01T16:49:35;12.80;80.10
67769;DHT22;54569;52.018;5.584;2023-01-01T16:52:01;12.80;80.10
67769;DHT22;54569;52.018;5.584;2023-01-01T16:54:27;12.80;80.10
67769;DHT22;54569;52.018;5.584;2023-01-01T16:56:53;12.80;80.00
67769;DHT22;54569;52.018;5.584;2023-01-01T16:59:19;12.80;79.90
67769;DHT22;54569;52.018;5.584;2023-01-01T17:01:45;12.80;79.80
67769;DHT22;54569;52.018;5.584;2023-01-01T17:04:11;12.80;79.80
67769;DHT22;54569;52.018;5.584;2023-01-01T17:06:38;12.80;79.70
67769;DHT22;54569;52.018;5.584;2023-01-01T17:09:04;12.80;79.80
67769;DHT22;54569;52.018;5.584;2023-01-01T17:11:30;12.80;79.80
67769;DHT22;54569;52.018;5.584;2023-01-01T17:13:56;12.80;79.90
67769;DHT22;54569;52.018;5.584;2023-01-01T17:16:24;12.80;80.00
67769;DHT22;54569;52.018;5.584;2023-01-01T17:18:50;12.80;80.20
67769;DHT22;54569;52.018;5.584;2023-01-01T17:21:16;12.70;80.20
67769;DHT22;54569;52.018;5.584;2023-01-01T17:23:43;12.70;80.40
67769;DHT22;54569;52.018;5.584;2023-01-01T17:26:14;12.70;80.60
67769;DHT22;54569;52.018;5.584;2023-01-01T17:28:41;12.70;80.70
67769;DHT22;54569;52.018;5.584;2023-01-01T17:31:09;12.70;80.80
67769;DHT22;54569;52.018;5.584;2023-01-01T17:33:36;12.70;80.90
67769;DHT22;54569;52.018;5.584;2023-01-01T17:36:02;12.70;81.00
67769;DHT22;54569;52.018;5.584;2023-01-01T17:38:28;12.70;81.10
67769;DHT22;54569;52.018;5.584;2023-01-01T17:41:07;12.70;81.30
67769;DHT22;54569;52.018;5.584;2023-01-01T17:43:35;12.70;82.10
67769;DHT22;54569;52.018;5.584;2023-01-01T17:46:24;12.60;81.60
67769;DHT22;54569;52.018;5.584;2023-01-01T17:48:50;12.60;82.30
67769;DHT22;54569;52.018;5.584;2023-01-01T17:51:17;12.60;82.00